sensor_id;sensor_type;location;lat;lon;timestamp;P1;durP1;ratioP1;P2;durP2;ratioP2
8757;SDS011;4415;42.152;24.744;2023-07-31T00:01:58;3.80;;;1.87;;
8757;SDS011;4415;42.152;24.744;2023-07-31T00:04:23;3.58;;;1.80;;
8757;SDS011;4415;42.152;24.744;2023-07-31T00:06:48;2.00;;;1.90;;
8757;SDS011;4415;42.152;24.744;2023-07-31T00:09:14;4.40;;;1.85;;
8757;SDS011;4415;42.152;24.744;2023-07-31T00:11:39;1.80;;;1.70;;
8757;SDS011;4415;42.152;24.744;2023-07-31T00:14:04;1.60;;;1.50;;
8757;SDS011;4415;42.152;24.744;2023-07-31T00:16:30;2.07;;;1.87;;
8757;SDS011;4415;42.152;24.744;2023-07-31T00:18:55;1.80;;;1.70;;
8757;SDS011;4415;42.152;24.744;2023-07-31T00:21:21;3.23;;;2.00;;
8757;SDS011;4415;42.152;24.744;2023-07-31T00:23:46;1.95;;;1.77;;
8757;SDS011;4415;42.152;24.744;2023-07-31T00:26:11;2.10;;;2.00;;
8757;SDS011;4415;42.152;24.744;2023-07-31T00:28:37;3.00;;;2.08;;
8757;SDS011;4415;42.152;24.744;2023-07-31T00:31:02;5.32;;;2.33;;
8757;SDS011;4415;42.152;24.744;2023-07-31T00:33:29;3.40;;;2.00;;
8757;SDS011;4415;42.152;24.744;2023-07-31T00:35:56;3.93;;;2.00;;
8757;SDS011;4415;42.152;24.744;2023-07-31T00:38:21;2.03;;;1.60;;
8757;SDS011;4415;42.152;24.744;2023-07-31T00:40:46;1.63;;;1.55;;
8757;SDS011;4415;42.152;24.744;2023-07-31T00:43:12;4.33;;;2.10;;
8757;SDS011;4415;42.152;24.744;2023-07-31T00:45:37;2.30;;;2.00;;
8757;SDS011;4415;42.152;24.744;2023-07-31T00:48:03;5.03;;;2.00;;
8757;SDS011;4415;42.152;24.744;2023-07-31T00:50:31;2.25;;;2.05;;
8757;SDS011;4415;42.152;24.744;2023-07-31T00:52:56;3.08;;;1.58;;
8757;SDS011;4415;42.152;24.744;2023-07-31T00:55:22;4.78;;;1.70;;
8757;SDS011;4415;42.152;24.744;2023-07-31T00:57:47;1.75;;;1.38;;
8757;SDS011;4415;42.152;24.744;2023-07-31T01:00:13;2.33;;;1.80;;
8757;SDS011;4415;42.152;24.744;2023-07-31T01:02:38;1.77;;;1.67;;
8757;SDS011;4415;42.152;24.744;2023-07-31T01:05:04;2.00;;;1.80;;
8757;SDS011;4415;42.152;24.744;2023-07-31T01:07:35;2.35;;;2.15;;
8757;SDS011;4415;42.152;24.744;2023-07-31T01:10:04;3.17;;;2.07;;
8757;SDS011;4415;42.152;24.744;2023-07-31T01:12:36;1.80;;;1.70;;
8757;SDS011;4415;42.152;24.744;2023-07-31T01:17:29;2.03;;;1.93;;
8757;SDS011;4415;42.152;24.744;2023-07-31T01:19:55;1.88;;;1.77;;
8757;SDS011;4415;42.152;24.744;2023-07-31T01:27:34;3.97;;;1.88;;
8757;SDS011;4415;42.152;24.744;2023-07-31T01:30:05;2.43;;;2.20;;
8757;SDS011;4415;42.152;24.744;2023-07-31T01:32:42;3.17;;;2.42;;
8757;SDS011;4415;42.152;24.744;2023-07-31T01:35:08;4.72;;;2.22;;
8757;SDS011;4415;42.152;24.744;2023-07-31T01:37:34;2.50;;;2.40;;
8757;SDS011;4415;42.152;24.744;2023-07-31T01:39:59;2.63;;;2.20;;
8757;SDS011;4415;42.152;24.744;2023-07-31T01:42:25;4.85;;;2.38;;
8757;SDS011;4415;42.152;24.744;2023-07-31T01:44:50;3.85;;;2.70;;
8757;SDS011;4415;42.152;24.744;2023-07-31T01:47:16;2.83;;;2.63;;
8757;SDS011;4415;42.152;24.744;2023-07-31T01:49:41;3.08;;;2.88;;
8757;SDS011;4415;42.152;24.744;2023-07-31T01:52:07;4.43;;;4.03;;
8757;SDS011;4415;42.152;24.744;2023-07-31T01:54:32;5.47;;;5.07;;
8757;SDS011;4415;42.152;24.744;2023-07-31T01:56:58;6.82;;;5.57;;
8757;SDS011;4415;42.152;24.744;2023-07-31T01:59:23;6.53;;;5.50;;
8757;SDS011;4415;42.152;24.744;2023-07-31T02:01:49;5.88;;;5.30;;
8757;SDS011;4415;42.152;24.744;2023-07-31T02:04:14;8.80;;;6.47;;
8757;SDS011;4415;42.152;24.744;2023-07-31T02:06:39;10.98;;;6.82;;
8757;SDS011;4415;42.152;24.744;2023-07-31T02:09:05;8.93;;;8.07;;
8757;SDS011;4415;42.152;24.744;2023-07-31T02:11:30;11.73;;;9.27;;
8757;SDS011;4415;42.152;24.744;2023-07-31T02:13:56;19.02;;;13.40;;
8757;SDS011;4415;42.152;24.744;2023-07-31T02:16:21;18.42;;;12.95;;
8757;SDS011;4415;42.152;24.744;2023-07-31T02:18:46;17.48;;;12.75;;
8757;SDS011;4415;42.152;24.744;2023-07-31T02:21:12;13.32;;;11.35;;
8757;SDS011;4415;42.152;24.744;2023-07-31T02:23:37;9.52;;;8.52;;
8757;SDS011;4415;42.152;24.744;2023-07-31T02:26:03;11.03;;;7.73;;
8757;SDS011;4415;42.152;24.744;2023-07-31T02:28:28;8.43;;;5.45;;
8757;SDS011;4415;42.152;24.744;2023-07-31T02:30:54;9.73;;;5.40;;
8757;SDS011;4415;42.152;24.744;2023-07-31T02:33:19;6.97;;;4.47;;
8757;SDS011;4415;42.152;24.744;2023-07-31T02:35:45;5.03;;;3.90;;
8757;SDS011;4415;42.152;24.744;2023-07-31T02:38:10;4.45;;;3.85;;
8757;SDS011;4415;42.152;24.744;2023-07-31T02:40:35;5.73;;;4.00;;
8757;SDS011;4415;42.152;24.744;2023-07-31T02:43:01;5.03;;;3.67;;
8757;SDS011;4415;42.152;24.744;2023-07-31T02:45:26;6.00;;;3.63;;
8757;SDS011;4415;42.152;24.744;2023-07-31T02:47:52;4.15;;;3.85;;
8757;SDS011;4415;42.152;24.744;2023-07-31T02:50:17;4.20;;;3.80;;
8757;SDS011;4415;42.152;24.744;2023-07-31T02:52:42;4.33;;;3.93;;
8757;SDS011;4415;42.152;24.744;2023-07-31T02:55:08;6.47;;;3.78;;
8757;SDS011;4415;42.152;24.744;2023-07-31T02:57:33;4.78;;;4.22;;
8757;SDS011;4415;42.152;24.744;2023-07-31T02:59:58;7.65;;;4.30;;
8757;SDS011;4415;42.152;24.744;2023-07-31T03:02:24;4.78;;;4.18;;
8757;SDS011;4415;42.152;24.744;2023-07-31T03:04:49;5.10;;;4.18;;
8757;SDS011;4415;42.152;24.744;2023-07-31T03:07:15;5.45;;;4.20;;
8757;SDS011;4415;42.152;24.744;2023-07-31T03:09:40;4.82;;;4.50;;
8757;SDS011;4415;42.152;24.744;2023-07-31T03:12:05;5.10;;;4.57;;
8757;SDS011;4415;42.152;24.744;2023-07-31T03:14:31;5.50;;;5.00;;
8757;SDS011;4415;42.152;24.744;2023-07-31T03:16:57;5.35;;;4.93;;
8757;SDS011;4415;42.152;24.744;2023-07-31T03:19:22;5.57;;;5.07;;
8757;SDS011;4415;42.152;24.744;2023-07-31T03:21:47;6.77;;;6.07;;
8757;SDS011;4415;42.152;24.744;2023-07-31T03:24:13;7.93;;;6.20;;
8757;SDS011;4415;42.152;24.744;2023-07-31T03:26:38;6.60;;;5.97;;
8757;SDS011;4415;42.152;24.744;2023-07-31T03:29:06;9.27;;;7.87;;
8757;SDS011;4415;42.152;24.744;2023-07-31T03:31:32;9.80;;;8.53;;
8757;SDS011;4415;42.152;24.744;2023-07-31T03:33:57;11.23;;;8.97;;
8757;SDS011;4415;42.152;24.744;2023-07-31T03:36:22;12.10;;;8.40;;
8757;SDS011;4415;42.152;24.744;2023-07-31T03:38:48;10.37;;;8.93;;
8757;SDS011;4415;42.152;24.744;2023-07-31T03:41:13;11.93;;;8.97;;
8757;SDS011;4415;42.152;24.744;2023-07-31T03:43:39;15.70;;;8.60;;
8757;SDS011;4415;42.152;24.744;2023-07-31T03:46:04;9.73;;;8.37;;
8757;SDS011;4415;42.152;24.744;2023-07-31T03:48:30;11.23;;;9.27;;
8757;SDS011;4415;42.152;24.744;2023-07-31T03:50:55;12.00;;;8.80;;
8757;SDS011;4415;42.152;24.744;2023-07-31T03:53:20;10.60;;;9.20;;
8757;SDS011;4415;42.152;24.744;2023-07-31T03:55:46;8.83;;;8.03;;
8757;SDS011;4415;42.152;24.744;2023-07-31T03:58:11;8.77;;;8.00;;
8757;SDS011;4415;42.152;24.744;2023-07-31T04:00:37;8.57;;;7.80;;
8757;SDS011;4415;42.152;24.744;2023-07-31T04:03:02;8.13;;;7.43;;
8757;SDS011;4415;42.152;24.744;2023-07-31T04:05:29;8.33;;;7.50;;
8757;SDS011;4415;42.152;24.744;2023-07-31T04:07:55;8.27;;;7.57;;
8757;SDS011;4415;42.152;24.744;2023-07-31T04:10:20;9.67;;;7.00;;
8757;SDS011;4415;42.152;24.744;2023-07-31T04:12:45;8.17;;;7.47;;
8757;SDS011;4415;42.152;24.744;2023-07-31T04:15:11;7.27;;;6.70;;
8757;SDS011;4415;42.152;24.744;2023-07-31T04:17:36;7.97;;;7.20;;
8757;SDS011;4415;42.152;24.744;2023-07-31T04:20:02;7.73;;;7.13;;
8757;SDS011;4415;42.152;24.744;2023-07-31T04:22:27;7.00;;;6.40;;
8757;SDS011;4415;42.152;24.744;2023-07-31T04:24:52;7.43;;;6.37;;
8757;SDS011;4415;42.152;24.744;2023-07-31T04:27:18;6.47;;;5.90;;
8757;SDS011;4415;42.152;24.744;2023-07-31T04:29:43;7.00;;;6.47;;
8757;SDS011;4415;42.152;24.744;2023-07-31T04:32:11;6.30;;;5.80;;
8757;SDS011;4415;42.152;24.744;2023-07-31T04:34:36;6.10;;;5.70;;
8757;SDS011;4415;42.152;24.744;2023-07-31T04:37:01;6.37;;;5.87;;
8757;SDS011;4415;42.152;24.744;2023-07-31T04:39:27;6.37;;;5.77;;
8757;SDS011;4415;42.152;24.744;2023-07-31T04:41:52;6.10;;;5.60;;
8757;SDS011;4415;42.152;24.744;2023-07-31T04:44:18;6.33;;;5.93;;
8757;SDS011;4415;42.152;24.744;2023-07-31T04:46:43;6.73;;;6.17;;
8757;SDS011;4415;42.152;24.744;2023-07-31T04:49:08;6.60;;;6.00;;
8757;SDS011;4415;42.152;24.744;2023-07-31T04:51:34;5.90;;;5.50;;
8757;SDS011;4415;42.152;24.744;2023-07-31T04:53:59;6.73;;;6.10;;
8757;SDS011;4415;42.152;24.744;2023-07-31T04:56:24;6.90;;;6.30;;
8757;SDS011;4415;42.152;24.744;2023-07-31T04:58:50;6.80;;;6.20;;
8757;SDS011;4415;42.152;24.744;2023-07-31T05:01:15;6.37;;;5.87;;
8757;SDS011;4415;42.152;24.744;2023-07-31T05:03:41;6.80;;;6.20;;
8757;SDS011;4415;42.152;24.744;2023-07-31T05:06:06;6.20;;;5.80;;
8757;SDS011;4415;42.152;24.744;2023-07-31T05:08:31;7.72;;;6.28;;
8757;SDS011;4415;42.152;24.744;2023-07-31T05:10:56;6.45;;;5.93;;
8757;SDS011;4415;42.152;24.744;2023-07-31T05:13:22;6.85;;;6.15;;
8757;SDS011;4415;42.152;24.744;2023-07-31T05:15:47;7.75;;;6.03;;
8757;SDS011;4415;42.152;24.744;2023-07-31T05:18:14;6.50;;;6.00;;
8757;SDS011;4415;42.152;24.744;2023-07-31T05:20:40;8.27;;;5.80;;
8757;SDS011;4415;42.152;24.744;2023-07-31T05:23:05;8.70;;;6.00;;
8757;SDS011;4415;42.152;24.744;2023-07-31T05:25:30;7.78;;;6.50;;
8757;SDS011;4415;42.152;24.744;2023-07-31T05:27:56;9.50;;;5.80;;
8757;SDS011;4415;42.152;24.744;2023-07-31T05:30:21;6.45;;;5.85;;
8757;SDS011;4415;42.152;24.744;2023-07-31T05:32:47;9.65;;;6.45;;
8757;SDS011;4415;42.152;24.744;2023-07-31T05:35:12;5.97;;;5.32;;
8757;SDS011;4415;42.152;24.744;2023-07-31T05:37:37;5.38;;;4.95;;
8757;SDS011;4415;42.152;24.744;2023-07-31T05:40:03;6.35;;;5.10;;
8757;SDS011;4415;42.152;24.744;2023-07-31T05:42:29;6.45;;;4.60;;
8757;SDS011;4415;42.152;24.744;2023-07-31T05:44:54;5.82;;;5.28;;
8757;SDS011;4415;42.152;24.744;2023-07-31T05:47:19;5.50;;;5.00;;
8757;SDS011;4415;42.152;24.744;2023-07-31T05:49:45;5.38;;;4.93;;
8757;SDS011;4415;42.152;24.744;2023-07-31T05:52:10;5.35;;;4.95;;
8757;SDS011;4415;42.152;24.744;2023-07-31T05:54:36;6.18;;;5.10;;
8757;SDS011;4415;42.152;24.744;2023-07-31T05:57:01;5.38;;;4.90;;
8757;SDS011;4415;42.152;24.744;2023-07-31T05:59:26;12.23;;;6.15;;
8757;SDS011;4415;42.152;24.744;2023-07-31T06:01:52;5.75;;;5.35;;
8757;SDS011;4415;42.152;24.744;2023-07-31T06:04:18;7.57;;;6.10;;
8757;SDS011;4415;42.152;24.744;2023-07-31T06:06:43;6.47;;;5.88;;
8757;SDS011;4415;42.152;24.744;2023-07-31T06:09:08;7.82;;;6.50;;
8757;SDS011;4415;42.152;24.744;2023-07-31T06:11:34;6.97;;;6.55;;
8757;SDS011;4415;42.152;24.744;2023-07-31T06:13:59;7.13;;;6.63;;
8757;SDS011;4415;42.152;24.744;2023-07-31T06:16:24;8.02;;;6.65;;
8757;SDS011;4415;42.152;24.744;2023-07-31T06:18:50;7.47;;;6.93;;
8757;SDS011;4415;42.152;24.744;2023-07-31T06:21:16;7.57;;;7.07;;
8757;SDS011;4415;42.152;24.744;2023-07-31T06:23:42;7.30;;;6.80;;
8757;SDS011;4415;42.152;24.744;2023-07-31T06:26:07;7.78;;;6.85;;
8757;SDS011;4415;42.152;24.744;2023-07-31T06:28:33;7.28;;;6.80;;
8757;SDS011;4415;42.152;24.744;2023-07-31T06:30:58;8.10;;;7.40;;
8757;SDS011;4415;42.152;24.744;2023-07-31T06:33:24;7.38;;;6.97;;
8757;SDS011;4415;42.152;24.744;2023-07-31T06:35:50;7.40;;;6.90;;
8757;SDS011;4415;42.152;24.744;2023-07-31T06:38:15;8.02;;;7.53;;
8757;SDS011;4415;42.152;24.744;2023-07-31T06:40:41;7.53;;;7.07;;
8757;SDS011;4415;42.152;24.744;2023-07-31T06:43:06;8.20;;;7.63;;
8757;SDS011;4415;42.152;24.744;2023-07-31T06:45:35;8.02;;;7.55;;
8757;SDS011;4415;42.152;24.744;2023-07-31T06:48:01;8.68;;;7.90;;
8757;SDS011;4415;42.152;24.744;2023-07-31T06:50:30;11.52;;;9.27;;
8757;SDS011;4415;42.152;24.744;2023-07-31T06:52:58;9.30;;;8.60;;
8757;SDS011;4415;42.152;24.744;2023-07-31T06:55:24;9.60;;;8.80;;
8757;SDS011;4415;42.152;24.744;2023-07-31T06:57:51;10.13;;;9.27;;
8757;SDS011;4415;42.152;24.744;2023-07-31T07:00:18;9.55;;;8.82;;
8757;SDS011;4415;42.152;24.744;2023-07-31T07:02:45;9.35;;;8.63;;
8757;SDS011;4415;42.152;24.744;2023-07-31T07:05:12;9.75;;;8.95;;
8757;SDS011;4415;42.152;24.744;2023-07-31T07:07:38;9.77;;;9.10;;
8757;SDS011;4415;42.152;24.744;2023-07-31T07:10:03;9.68;;;8.90;;
8757;SDS011;4415;42.152;24.744;2023-07-31T07:12:30;9.73;;;9.02;;
8757;SDS011;4415;42.152;24.744;2023-07-31T07:14:56;9.85;;;9.15;;
8757;SDS011;4415;42.152;24.744;2023-07-31T07:17:22;10.60;;;9.65;;
8757;SDS011;4415;42.152;24.744;2023-07-31T07:19:48;10.02;;;9.30;;
8757;SDS011;4415;42.152;24.744;2023-07-31T07:22:14;10.02;;;9.43;;
8757;SDS011;4415;42.152;24.744;2023-07-31T07:24:39;10.60;;;9.90;;
8757;SDS011;4415;42.152;24.744;2023-07-31T07:27:05;11.02;;;10.32;;
8757;SDS011;4415;42.152;24.744;2023-07-31T07:29:31;11.75;;;10.73;;
8757;SDS011;4415;42.152;24.744;2023-07-31T07:31:56;12.55;;;11.68;;
8757;SDS011;4415;42.152;24.744;2023-07-31T07:34:22;13.00;;;11.85;;
8757;SDS011;4415;42.152;24.744;2023-07-31T07:36:49;11.68;;;10.85;;
8757;SDS011;4415;42.152;24.744;2023-07-31T07:39:14;12.10;;;11.20;;
8757;SDS011;4415;42.152;24.744;2023-07-31T07:41:40;11.85;;;11.00;;
8757;SDS011;4415;42.152;24.744;2023-07-31T07:44:05;11.68;;;10.88;;
8757;SDS011;4415;42.152;24.744;2023-07-31T07:46:31;11.90;;;11.07;;
8757;SDS011;4415;42.152;24.744;2023-07-31T07:48:56;11.77;;;10.98;;
8757;SDS011;4415;42.152;24.744;2023-07-31T07:51:21;12.00;;;11.10;;
8757;SDS011;4415;42.152;24.744;2023-07-31T07:53:47;11.60;;;10.90;;
8757;SDS011;4415;42.152;24.744;2023-07-31T07:56:12;10.38;;;9.77;;
8757;SDS011;4415;42.152;24.744;2023-07-31T07:58:38;12.75;;;11.57;;
8757;SDS011;4415;42.152;24.744;2023-07-31T08:01:03;10.93;;;10.23;;
8757;SDS011;4415;42.152;24.744;2023-07-31T08:03:28;11.10;;;10.50;;
8757;SDS011;4415;42.152;24.744;2023-07-31T08:05:57;11.15;;;10.45;;
8757;SDS011;4415;42.152;24.744;2023-07-31T08:08:26;10.82;;;10.13;;
8757;SDS011;4415;42.152;24.744;2023-07-31T08:10:52;10.82;;;10.05;;
8757;SDS011;4415;42.152;24.744;2023-07-31T08:13:18;10.82;;;10.13;;
8757;SDS011;4415;42.152;24.744;2023-07-31T08:15:43;10.82;;;10.00;;
8757;SDS011;4415;42.152;24.744;2023-07-31T08:18:09;9.73;;;9.13;;
8757;SDS011;4415;42.152;24.744;2023-07-31T08:20:35;9.77;;;9.18;;
8757;SDS011;4415;42.152;24.744;2023-07-31T08:23:00;9.85;;;9.23;;
8757;SDS011;4415;42.152;24.744;2023-07-31T08:25:25;9.80;;;9.20;;
8757;SDS011;4415;42.152;24.744;2023-07-31T08:27:51;9.07;;;8.50;;
8757;SDS011;4415;42.152;24.744;2023-07-31T08:30:18;8.68;;;8.18;;
8757;SDS011;4415;42.152;24.744;2023-07-31T08:32:44;9.10;;;8.40;;
8757;SDS011;4415;42.152;24.744;2023-07-31T08:35:09;8.68;;;8.18;;
8757;SDS011;4415;42.152;24.744;2023-07-31T08:37:34;11.77;;;10.82;;
8757;SDS011;4415;42.152;24.744;2023-07-31T08:40:00;12.23;;;11.32;;
8757;SDS011;4415;42.152;24.744;2023-07-31T08:42:26;13.10;;;12.20;;
8757;SDS011;4415;42.152;24.744;2023-07-31T08:44:51;12.75;;;11.95;;
8757;SDS011;4415;42.152;24.744;2023-07-31T08:47:17;12.73;;;11.80;;
8757;SDS011;4415;42.152;24.744;2023-07-31T08:49:45;11.85;;;10.82;;
8757;SDS011;4415;42.152;24.744;2023-07-31T08:52:12;10.82;;;10.13;;
8757;SDS011;4415;42.152;24.744;2023-07-31T08:54:37;11.98;;;11.20;;
8757;SDS011;4415;42.152;24.744;2023-07-31T08:57:05;10.88;;;10.07;;
8757;SDS011;4415;42.152;24.744;2023-07-31T08:59:31;12.05;;;11.25;;
8757;SDS011;4415;42.152;24.744;2023-07-31T09:02:01;11.32;;;10.63;;
8757;SDS011;4415;42.152;24.744;2023-07-31T09:04:31;12.65;;;11.75;;
8757;SDS011;4415;42.152;24.744;2023-07-31T09:06:57;12.15;;;11.20;;
8757;SDS011;4415;42.152;24.744;2023-07-31T09:09:25;12.57;;;11.73;;
8757;SDS011;4415;42.152;24.744;2023-07-31T09:11:51;12.80;;;11.95;;
8757;SDS011;4415;42.152;24.744;2023-07-31T09:14:17;11.63;;;10.93;;
8757;SDS011;4415;42.152;24.744;2023-07-31T09:16:54;12.15;;;11.38;;
8757;SDS011;4415;42.152;24.744;2023-07-31T09:19:27;11.80;;;10.90;;
8757;SDS011;4415;42.152;24.744;2023-07-31T09:21:55;11.88;;;10.98;;
8757;SDS011;4415;42.152;24.744;2023-07-31T09:24:27;12.20;;;11.40;;
8757;SDS011;4415;42.152;24.744;2023-07-31T09:26:54;12.55;;;11.43;;
8757;SDS011;4415;42.152;24.744;2023-07-31T09:29:23;12.60;;;11.80;;
8757;SDS011;4415;42.152;24.744;2023-07-31T09:31:50;12.63;;;11.75;;
8757;SDS011;4415;42.152;24.744;2023-07-31T09:34:16;13.15;;;12.25;;
8757;SDS011;4415;42.152;24.744;2023-07-31T09:36:46;12.15;;;11.32;;
8757;SDS011;4415;42.152;24.744;2023-07-31T09:39:13;11.10;;;10.30;;
8757;SDS011;4415;42.152;24.744;2023-07-31T09:41:44;10.93;;;10.13;;
8757;SDS011;4415;42.152;24.744;2023-07-31T09:44:12;12.18;;;11.20;;
8757;SDS011;4415;42.152;24.744;2023-07-31T09:46:37;12.82;;;11.82;;
8757;SDS011;4415;42.152;24.744;2023-07-31T09:49:04;10.20;;;9.50;;
8757;SDS011;4415;42.152;24.744;2023-07-31T09:51:40;11.48;;;10.77;;
8757;SDS011;4415;42.152;24.744;2023-07-31T09:54:14;10.00;;;9.20;;
8757;SDS011;4415;42.152;24.744;2023-07-31T09:56:41;10.48;;;9.65;;
8757;SDS011;4415;42.152;24.744;2023-07-31T09:59:10;10.10;;;9.50;;
8757;SDS011;4415;42.152;24.744;2023-07-31T10:01:37;10.85;;;10.20;;
8757;SDS011;4415;42.152;24.744;2023-07-31T10:04:04;10.60;;;9.75;;
8757;SDS011;4415;42.152;24.744;2023-07-31T10:06:30;11.77;;;10.98;;
8757;SDS011;4415;42.152;24.744;2023-07-31T10:08:58;11.52;;;10.82;;
8757;SDS011;4415;42.152;24.744;2023-07-31T10:11:24;11.35;;;10.65;;
8757;SDS011;4415;42.152;24.744;2023-07-31T10:13:52;10.63;;;9.93;;
8757;SDS011;4415;42.152;24.744;2023-07-31T10:16:20;10.77;;;10.07;;
8757;SDS011;4415;42.152;24.744;2023-07-31T10:18:46;10.98;;;10.18;;
8757;SDS011;4415;42.152;24.744;2023-07-31T10:21:13;11.60;;;10.77;;
8757;SDS011;4415;42.152;24.744;2023-07-31T10:23:39;11.88;;;11.18;;
8757;SDS011;4415;42.152;24.744;2023-07-31T10:26:05;11.70;;;10.90;;
8757;SDS011;4415;42.152;24.744;2023-07-31T10:28:32;10.15;;;9.55;;
8757;SDS011;4415;42.152;24.744;2023-07-31T10:30:59;10.60;;;9.93;;
8757;SDS011;4415;42.152;24.744;2023-07-31T10:33:26;9.95;;;9.20;;
8757;SDS011;4415;42.152;24.744;2023-07-31T10:36:11;9.85;;;9.35;;
8757;SDS011;4415;42.152;24.744;2023-07-31T10:38:38;10.48;;;9.77;;
8757;SDS011;4415;42.152;24.744;2023-07-31T10:41:10;10.48;;;9.77;;
8757;SDS011;4415;42.152;24.744;2023-07-31T10:43:36;11.38;;;10.48;;
8757;SDS011;4415;42.152;24.744;2023-07-31T10:46:09;10.38;;;9.77;;
8757;SDS011;4415;42.152;24.744;2023-07-31T10:48:38;10.95;;;9.95;;
8757;SDS011;4415;42.152;24.744;2023-07-31T10:51:10;10.68;;;9.88;;
8757;SDS011;4415;42.152;24.744;2023-07-31T10:53:37;9.63;;;9.02;;
8757;SDS011;4415;42.152;24.744;2023-07-31T10:56:04;9.23;;;8.60;;
8757;SDS011;4415;42.152;24.744;2023-07-31T10:58:34;9.55;;;8.85;;
8757;SDS011;4415;42.152;24.744;2023-07-31T11:01:02;12.90;;;9.50;;
8757;SDS011;4415;42.152;24.744;2023-07-31T11:03:48;8.45;;;8.00;;
8757;SDS011;4415;42.152;24.744;2023-07-31T11:06:15;11.02;;;10.23;;
8757;SDS011;4415;42.152;24.744;2023-07-31T11:08:42;7.68;;;7.28;;
8757;SDS011;4415;42.152;24.744;2023-07-31T11:11:10;8.68;;;8.05;;
8757;SDS011;4415;42.152;24.744;2023-07-31T11:13:40;11.80;;;10.80;;
8757;SDS011;4415;42.152;24.744;2023-07-31T11:16:06;11.95;;;11.15;;
8757;SDS011;4415;42.152;24.744;2023-07-31T11:18:32;9.40;;;8.57;;
8757;SDS011;4415;42.152;24.744;2023-07-31T11:20:57;12.05;;;8.27;;
8757;SDS011;4415;42.152;24.744;2023-07-31T11:23:23;8.73;;;7.95;;
8757;SDS011;4415;42.152;24.744;2023-07-31T11:25:49;8.63;;;7.93;;
8757;SDS011;4415;42.152;24.744;2023-07-31T11:28:16;9.32;;;7.70;;
8757;SDS011;4415;42.152;24.744;2023-07-31T11:30:43;7.85;;;7.30;;
8757;SDS011;4415;42.152;24.744;2023-07-31T11:33:10;8.10;;;7.45;;
8757;SDS011;4415;42.152;24.744;2023-07-31T11:35:44;8.77;;;7.85;;
8757;SDS011;4415;42.152;24.744;2023-07-31T11:38:11;8.63;;;7.93;;
8757;SDS011;4415;42.152;24.744;2023-07-31T11:40:44;8.18;;;7.68;;
8757;SDS011;4415;42.152;24.744;2023-07-31T11:43:09;7.25;;;6.85;;
8757;SDS011;4415;42.152;24.744;2023-07-31T11:45:39;8.75;;;8.10;;
8757;SDS011;4415;42.152;24.744;2023-07-31T11:48:05;7.75;;;7.25;;
8757;SDS011;4415;42.152;24.744;2023-07-31T11:50:30;9.25;;;8.60;;
8757;SDS011;4415;42.152;24.744;2023-07-31T11:52:59;8.57;;;7.97;;
8757;SDS011;4415;42.152;24.744;2023-07-31T11:55:28;9.18;;;8.48;;
8757;SDS011;4415;42.152;24.744;2023-07-31T11:57:55;8.40;;;7.65;;
8757;SDS011;4415;42.152;24.744;2023-07-31T12:00:23;8.27;;;7.78;;
8757;SDS011;4415;42.152;24.744;2023-07-31T12:02:49;8.35;;;7.85;;
8757;SDS011;4415;42.152;24.744;2023-07-31T12:05:15;8.02;;;7.53;;
8757;SDS011;4415;42.152;24.744;2023-07-31T12:07:51;8.73;;;8.10;;
8757;SDS011;4415;42.152;24.744;2023-07-31T12:12:58;9.38;;;8.77;;
8757;SDS011;4415;42.152;24.744;2023-07-31T12:15:41;9.07;;;8.48;;
8757;SDS011;4415;42.152;24.744;2023-07-31T12:20:33;10.30;;;9.38;;
8757;SDS011;4415;42.152;24.744;2023-07-31T12:23:00;9.95;;;9.25;;
8757;SDS011;4415;42.152;24.744;2023-07-31T12:25:32;10.98;;;9.93;;
8757;SDS011;4415;42.152;24.744;2023-07-31T12:28:03;9.35;;;8.60;;
8757;SDS011;4415;42.152;24.744;2023-07-31T12:30:31;7.28;;;6.88;;
8757;SDS011;4415;42.152;24.744;2023-07-31T12:33:03;7.28;;;6.78;;
8757;SDS011;4415;42.152;24.744;2023-07-31T12:35:37;7.47;;;6.97;;
8757;SDS011;4415;42.152;24.744;2023-07-31T12:38:05;6.28;;;5.97;;
8757;SDS011;4415;42.152;24.744;2023-07-31T12:40:31;5.65;;;5.35;;
8757;SDS011;4415;42.152;24.744;2023-07-31T12:42:57;5.50;;;5.20;;
8757;SDS011;4415;42.152;24.744;2023-07-31T12:45:22;5.88;;;5.47;;
8757;SDS011;4415;42.152;24.744;2023-07-31T12:47:48;5.60;;;5.30;;
8757;SDS011;4415;42.152;24.744;2023-07-31T12:50:14;6.28;;;5.88;;
8757;SDS011;4415;42.152;24.744;2023-07-31T12:52:39;5.55;;;5.05;;
8757;SDS011;4415;42.152;24.744;2023-07-31T12:55:05;4.70;;;4.45;;
8757;SDS011;4415;42.152;24.744;2023-07-31T12:57:30;6.88;;;6.47;;
8757;SDS011;4415;42.152;24.744;2023-07-31T12:59:56;7.05;;;6.43;;
8757;SDS011;4415;42.152;24.744;2023-07-31T13:02:21;7.28;;;6.88;;
8757;SDS011;4415;42.152;24.744;2023-07-31T13:04:47;7.53;;;7.00;;
8757;SDS011;4415;42.152;24.744;2023-07-31T13:07:13;7.30;;;6.80;;
8757;SDS011;4415;42.152;24.744;2023-07-31T13:09:39;6.45;;;6.15;;
8757;SDS011;4415;42.152;24.744;2023-07-31T13:12:04;6.38;;;5.90;;
8757;SDS011;4415;42.152;24.744;2023-07-31T13:14:30;6.47;;;6.07;;
8757;SDS011;4415;42.152;24.744;2023-07-31T13:16:56;6.40;;;5.97;;
8757;SDS011;4415;42.152;24.744;2023-07-31T13:19:21;6.15;;;5.75;;
8757;SDS011;4415;42.152;24.744;2023-07-31T13:21:47;6.32;;;6.00;;
8757;SDS011;4415;42.152;24.744;2023-07-31T13:24:12;8.90;;;8.20;;
8757;SDS011;4415;42.152;24.744;2023-07-31T13:26:38;9.02;;;8.32;;
8757;SDS011;4415;42.152;24.744;2023-07-31T13:29:03;9.10;;;8.50;;
8757;SDS011;4415;42.152;24.744;2023-07-31T13:31:29;8.90;;;8.30;;
8757;SDS011;4415;42.152;24.744;2023-07-31T13:33:54;9.27;;;8.57;;
8757;SDS011;4415;42.152;24.744;2023-07-31T13:36:19;8.63;;;7.82;;
8757;SDS011;4415;42.152;24.744;2023-07-31T13:38:45;7.93;;;7.43;;
8757;SDS011;4415;42.152;24.744;2023-07-31T13:41:10;7.97;;;7.47;;
8757;SDS011;4415;42.152;24.744;2023-07-31T13:43:36;7.40;;;7.00;;
8757;SDS011;4415;42.152;24.744;2023-07-31T13:46:01;8.10;;;7.47;;
8757;SDS011;4415;42.152;24.744;2023-07-31T13:48:31;7.85;;;7.32;;
8757;SDS011;4415;42.152;24.744;2023-07-31T13:50:59;8.20;;;7.70;;
8757;SDS011;4415;42.152;24.744;2023-07-31T13:53:24;7.90;;;7.40;;
8757;SDS011;4415;42.152;24.744;2023-07-31T13:55:50;7.80;;;7.40;;
8757;SDS011;4415;42.152;24.744;2023-07-31T13:58:15;7.57;;;6.97;;
8757;SDS011;4415;42.152;24.744;2023-07-31T14:00:41;6.82;;;6.38;;
8757;SDS011;4415;42.152;24.744;2023-07-31T14:03:07;8.02;;;7.43;;
8757;SDS011;4415;42.152;24.744;2023-07-31T14:05:32;6.85;;;6.45;;
8757;SDS011;4415;42.152;24.744;2023-07-31T14:07:58;7.82;;;7.43;;
8757;SDS011;4415;42.152;24.744;2023-07-31T14:10:23;8.05;;;7.50;;
8757;SDS011;4415;42.152;24.744;2023-07-31T14:12:49;7.57;;;7.07;;
8757;SDS011;4415;42.152;24.744;2023-07-31T14:15:14;8.53;;;8.03;;
8757;SDS011;4415;42.152;24.744;2023-07-31T14:17:40;8.00;;;7.50;;
8757;SDS011;4415;42.152;24.744;2023-07-31T14:20:05;7.72;;;7.22;;
8757;SDS011;4415;42.152;24.744;2023-07-31T14:22:31;7.40;;;6.90;;
8757;SDS011;4415;42.152;24.744;2023-07-31T14:24:58;8.13;;;7.63;;
8757;SDS011;4415;42.152;24.744;2023-07-31T14:27:24;8.07;;;7.53;;
8757;SDS011;4415;42.152;24.744;2023-07-31T14:29:49;8.02;;;7.25;;
8757;SDS011;4415;42.152;24.744;2023-07-31T14:32:15;8.00;;;7.20;;
8757;SDS011;4415;42.152;24.744;2023-07-31T14:34:40;8.13;;;7.53;;
8757;SDS011;4415;42.152;24.744;2023-07-31T14:37:06;7.53;;;6.95;;
8757;SDS011;4415;42.152;24.744;2023-07-31T14:39:31;7.28;;;6.78;;
8757;SDS011;4415;42.152;24.744;2023-07-31T14:41:56;6.95;;;6.50;;
8757;SDS011;4415;42.152;24.744;2023-07-31T14:44:22;7.50;;;7.10;;
8757;SDS011;4415;42.152;24.744;2023-07-31T14:46:47;7.40;;;7.00;;
8757;SDS011;4415;42.152;24.744;2023-07-31T14:49:13;7.57;;;6.97;;
8757;SDS011;4415;42.152;24.744;2023-07-31T14:51:39;7.60;;;7.10;;
8757;SDS011;4415;42.152;24.744;2023-07-31T14:54:04;7.90;;;7.18;;
8757;SDS011;4415;42.152;24.744;2023-07-31T14:56:32;8.00;;;7.50;;
8757;SDS011;4415;42.152;24.744;2023-07-31T14:59:01;8.55;;;7.95;;
8757;SDS011;4415;42.152;24.744;2023-07-31T15:01:26;8.52;;;7.93;;
8757;SDS011;4415;42.152;24.744;2023-07-31T15:03:51;7.93;;;7.22;;